This is the latest recevied weather packets stored in our database for station/object 9A3SWO. If no packets are shown the sender has not sent any weather packets the latest 10 day(s).
| Time | Temp. | Humidity | Pressure | Rain* | Wind** | Luminosity | Snow |
|---|---|---|---|---|---|---|---|
| 1788005306 | 26.11° C | 43% | 1018.2 hPa | - | - | - | - |
| 1788004706 | 26.11° C | 44% | 1018.2 hPa | - | - | - | - |
| 1788004106 | 25.56° C | 45% | 1018.4 hPa | - | - | - | - |
| 1788003506 | 26.11° C | 46% | 1018.4 hPa | - | - | - | - |
| 1788002906 | 26.11° C | 46% | 1018.5 hPa | - | - | - | - |
| 1788002306 | 26.11° C | 48% | 1018.7 hPa | - | - | - | - |
| 1788001706 | 25.56° C | 47% | 1018.7 hPa | - | - | - | - |
| 1788001106 | 25.56° C | 49% | 1018.8 hPa | - | - | - | - |
| 1788000507 | 25° C | 50% | 1018.9 hPa | - | - | - | - |
| 1787999906 | 24.44° C | 51% | 1019.1 hPa | - | - | - | - |
| 1787999307 | 23.89° C | 52% | 1019.2 hPa | - | - | - | - |
| 1787998710 | 23.89° C | 53% | 1019.1 hPa | - | - | - | - |
| 1787998106 | 25° C | 52% | 1019.2 hPa | - | - | - | - |
| 1787997506 | 24.44° C | 54% | 1019 hPa | - | - | - | - |
| 1787996905 | 24.44° C | 54% | 1019.1 hPa | - | - | - | - |
| 1787996306 | 24.44° C | 55% | 1019.1 hPa | - | - | - | - |
| 1787995706 | 25.56° C | 51% | 1019.2 hPa | - | - | - | - |
| 1787995107 | 25.56° C | 52% | 1018.9 hPa | - | - | - | - |
| 1787994505 | 25° C | 54% | 1018.9 hPa | - | - | - | - |
| 1787993906 | 25.56° C | 51% | 1018.9 hPa | - | - | - | - |
| 1787993306 | 26.11° C | 52% | 1018.3 hPa | - | - | - | - |
| 1787992705 | 25.56° C | 52% | 1018.1 hPa | - | - | - | - |
| 1787992105 | 25° C | 53% | 1017.5 hPa | - | - | - | - |
| 1787991507 | 25.56° C | 53% | 1017.7 hPa | - | - | - | - |
| 1787990905 | 25° C | 55% | 1017.8 hPa | - | - | - | - |
* Rain since midnight (hover to see other rain measurements)
** Current wind speed in m/s (hover to see current wind gust speed)